Archival Weather

Republic

Farmingdale, New York (KFRG)

Report from: Saturday, February 24, 2024 2:53 AM EST
Current time: Friday, June 21, 2024 5:12 AM EDT

Current weather – Weather history – Daily summaries
Weather forecast

Temperature5.0°C (41.0°F)
Wind chill1.5°C (34.7°F)
Dew point1.7°C (35.1°F)
Winds 9 kts (4.6 m/s, 10.4 mph) North-Northwest (330°)
Visibility10 mi. (16.1 km)
Clouds Sky clear
Altimeter29.49 in.Hg (999 mB)
Relative humidity79 %
Density altitude-600 ft. (-183 m)
Sea-level pressure99.9 kPa (999 mB, 29.49 in.Hg)
Remarks Fully automated report
Automated weather observing station without precipitation discriminator
Flight conditions Visual Meteorological Conditions
Raw dataKFRG 240753Z AUTO 33009KT 10SM CLR 05/02 A2949 RMK AO1 SLP985 T00500017
An error has occurred. This application may no longer respond until reloaded. Reload 🗙